createdAt,value
2018-02-08T00:01:26.704Z,99008.32
2018-02-08T00:03:55.032Z,99011.80
2018-02-08T00:06:23.338Z,99013.52
2018-02-08T00:08:51.651Z,99010.11
2018-02-08T00:11:19.894Z,99007.59
2018-02-08T00:13:48.179Z,99024.08
2018-02-08T00:16:16.459Z,99014.08
2018-02-08T00:18:44.735Z,99016.23
2018-02-08T00:21:13.013Z,99021.66
2018-02-08T00:23:41.315Z,99024.22
2018-02-08T00:26:09.642Z,99020.91
2018-02-08T00:28:37.924Z,99013.73
2018-02-08T00:31:06.202Z,99015.73
2018-02-08T00:33:34.498Z,99006.70
2018-02-08T00:36:02.768Z,99011.53
2018-02-08T00:38:31.081Z,99019.98
2018-02-08T00:40:59.404Z,99017.09
2018-02-08T00:43:27.686Z,99020.73
2018-02-08T00:45:55.988Z,99020.91
2018-02-08T00:48:24.265Z,99021.19
2018-02-08T00:50:52.576Z,99024.16
2018-02-08T00:53:21.102Z,99025.14
2018-02-08T00:55:49.420Z,99025.50
2018-02-08T00:58:17.719Z,99032.61
2018-02-08T01:00:46.027Z,99033.81
2018-02-08T01:03:14.345Z,99044.42
2018-02-08T01:05:42.601Z,99048.37
2018-02-08T01:08:10.905Z,99049.49
2018-02-08T01:10:39.176Z,99049.84
2018-02-08T01:13:07.508Z,99053.19
2018-02-08T01:15:36.404Z,99053.80
2018-02-08T01:18:05.694Z,99043.83
2018-02-08T01:20:33.979Z,99055.69
2018-02-08T01:23:02.267Z,99052.80
2018-02-08T01:25:30.561Z,99055.70
2018-02-08T01:27:58.874Z,99055.11
2018-02-08T01:30:27.151Z,99059.50
2018-02-08T01:32:55.452Z,99056.95
2018-02-08T01:35:23.736Z,99056.88
2018-02-08T01:37:52.018Z,99068.00
2018-02-08T01:40:20.384Z,99062.84
2018-02-08T01:42:48.657Z,99060.97
2018-02-08T01:45:16.957Z,99059.88
2018-02-08T01:47:45.231Z,99060.20
2018-02-08T01:50:13.539Z,99057.66
2018-02-08T01:52:41.810Z,99058.98
2018-02-08T01:55:10.122Z,99059.32
2018-02-08T01:57:38.427Z,99055.94
2018-02-08T02:00:06.751Z,99055.45
2018-02-08T02:02:34.999Z,99057.13
2018-02-08T02:05:04.316Z,99051.44
2018-02-08T02:07:32.639Z,99058.05
2018-02-08T02:10:00.924Z,99054.48
2018-02-08T02:12:29.235Z,99051.48
2018-02-08T02:14:57.505Z,99047.20
2018-02-08T02:17:25.800Z,99046.98
2018-02-08T02:19:54.083Z,99045.14
2018-02-08T02:22:22.434Z,99050.08
2018-02-08T02:24:50.728Z,99045.97
2018-02-08T02:27:19.038Z,99052.17
2018-02-08T02:29:47.334Z,99048.87
2018-02-08T02:32:15.654Z,99044.48
2018-02-08T02:34:43.967Z,99042.81
2018-02-08T02:37:12.293Z,99038.05
2018-02-08T02:39:41.144Z,99034.66
2018-02-08T02:42:09.445Z,99036.41
2018-02-08T02:44:37.744Z,99033.69
2018-02-08T02:47:06.020Z,99028.16
2018-02-08T02:49:34.354Z,99035.39
2018-02-08T02:52:02.630Z,99034.75
2018-02-08T02:54:30.927Z,99031.87
2018-02-08T02:56:59.211Z,99036.73
2018-02-08T02:59:27.526Z,99037.01
2018-02-08T03:01:55.791Z,99037.45
2018-02-08T03:04:24.148Z,99034.06
2018-02-08T03:06:52.414Z,99037.69
2018-02-08T03:09:21.587Z,99037.84
2018-02-08T03:11:49.883Z,99034.81
2018-02-08T03:14:18.170Z,99036.06
2018-02-08T03:16:46.472Z,99034.76
2018-02-08T03:19:15.542Z,99037.80
2018-02-08T03:21:44.127Z,99038.27
2018-02-08T03:24:12.403Z,99045.89
2018-02-08T03:26:41.206Z,99041.23
2018-02-08T03:29:09.470Z,99040.27
2018-02-08T03:31:38.584Z,99046.05
2018-02-08T03:34:07.160Z,99052.58
2018-02-08T03:36:35.479Z,99047.24
2018-02-08T03:39:03.823Z,99047.53
2018-02-08T03:41:32.162Z,99048.00
2018-02-08T03:44:00.447Z,99046.14
2018-02-08T03:46:28.763Z,99048.94
2018-02-08T03:48:57.011Z,99048.72
2018-02-08T03:51:25.352Z,99044.02
2018-02-08T03:53:53.595Z,99048.43
2018-02-08T03:56:21.860Z,99048.65
2018-02-08T03:58:50.199Z,99049.67
2018-02-08T04:01:18.488Z,99045.63
2018-02-08T04:03:46.795Z,99052.42
2018-02-08T04:06:15.044Z,99052.33
2018-02-08T04:08:43.363Z,99045.17
2018-02-08T04:11:11.645Z,99047.56
2018-02-08T04:13:39.963Z,99045.48
2018-02-08T04:16:08.243Z,99053.64
2018-02-08T04:18:37.231Z,99042.97
2018-02-08T04:21:05.522Z,99060.80
2018-02-08T04:23:33.803Z,99061.18
2018-02-08T04:26:02.091Z,99064.31
2018-02-08T04:28:30.367Z,99067.65
2018-02-08T04:30:58.679Z,99068.12
2018-02-08T04:33:26.980Z,99065.73
2018-02-08T04:35:55.267Z,99076.03
2018-02-08T04:38:35.307Z,99074.23
2018-02-08T04:41:15.270Z,99079.05
2018-02-08T04:43:55.285Z,99076.75
2018-02-08T04:46:35.380Z,99075.44
2018-02-08T04:49:03.651Z,99077.92
2018-02-08T04:51:31.936Z,99080.92
2018-02-08T04:54:00.579Z,99085.45
2018-02-08T04:56:28.902Z,99091.45
2018-02-08T04:58:57.195Z,99097.27
2018-02-08T05:01:25.518Z,99094.37
2018-02-08T05:03:53.820Z,99090.97
2018-02-08T05:06:22.096Z,99090.67
2018-02-08T05:08:50.401Z,99096.87
2018-02-08T05:11:18.656Z,99099.08
2018-02-08T05:13:46.950Z,99104.09
2018-02-08T05:16:15.205Z,99099.06
2018-02-08T05:18:43.512Z,99104.89
2018-02-08T05:21:11.780Z,99107.28
2018-02-08T05:23:40.110Z,99110.20
2018-02-08T05:26:08.395Z,99101.77
2018-02-08T05:28:36.694Z,99106.44
2018-02-08T05:31:05.274Z,99103.20
2018-02-08T05:33:33.566Z,99107.03
2018-02-08T05:36:01.872Z,99102.03
2018-02-08T05:38:30.158Z,99104.67
2018-02-08T05:40:58.481Z,99108.06
2018-02-08T05:43:26.763Z,99115.50
2018-02-08T05:45:55.064Z,99112.98
2018-02-08T05:48:23.341Z,99109.90
2018-02-08T05:50:51.659Z,99106.68
2018-02-08T05:53:19.950Z,99111.09
2018-02-08T05:55:48.240Z,99120.58
2018-02-08T05:58:16.548Z,99119.94
2018-02-08T06:00:44.840Z,99124.23
2018-02-08T06:03:13.164Z,99123.49
2018-02-08T06:05:41.448Z,99128.97
2018-02-08T06:08:09.812Z,99132.06
2018-02-08T06:10:38.109Z,99134.41
2018-02-08T06:13:06.396Z,99135.70
2018-02-08T06:15:34.697Z,99131.81
2018-02-08T06:18:03.005Z,99131.50
2018-02-08T06:20:31.302Z,99131.63
2018-02-08T06:22:59.609Z,99134.13
2018-02-08T06:25:27.878Z,99143.34
2018-02-08T06:27:56.160Z,99136.02
2018-02-08T06:30:24.479Z,99142.02
2018-02-08T06:32:52.816Z,99145.89
2018-02-08T06:35:21.118Z,99145.64
2018-02-08T06:37:49.431Z,99151.16
2018-02-08T06:40:17.725Z,99150.62
2018-02-08T06:42:45.998Z,99151.66
2018-02-08T06:45:14.369Z,99150.59
2018-02-08T06:47:43.555Z,99158.36
2018-02-08T06:50:11.857Z,99154.25
2018-02-08T06:52:40.123Z,99158.66
2018-02-08T06:55:08.430Z,99153.74
2018-02-08T06:57:36.772Z,99155.34
2018-02-08T07:00:05.245Z,99107.77
2018-02-08T07:02:33.583Z,99162.60
2018-02-08T07:05:01.915Z,99167.25
2018-02-08T07:07:30.263Z,99168.78
2018-02-08T07:09:58.576Z,99176.07
2018-02-08T07:12:26.927Z,99176.68
2018-02-08T07:14:55.238Z,99177.89
2018-02-08T07:17:23.567Z,99181.48
2018-02-08T07:19:51.859Z,99167.27
2018-02-08T07:22:20.173Z,99184.52
2018-02-08T07:24:48.461Z,99204.93
2018-02-08T07:27:16.779Z,99192.01
2018-02-08T07:29:45.065Z,99188.88
2018-02-08T07:32:13.513Z,99195.80
2018-02-08T07:34:41.765Z,99195.91
2018-02-08T07:37:10.088Z,99193.20
2018-02-08T07:42:05.831Z,99203.64
2018-02-08T07:44:34.143Z,99200.52
2018-02-08T07:47:02.447Z,99202.94
2018-02-08T07:49:30.933Z,99202.63
2018-02-08T07:51:59.643Z,99204.02
2018-02-08T07:54:27.969Z,99197.98
2018-02-08T07:56:56.266Z,99204.98
2018-02-08T07:59:24.647Z,99208.37
2018-02-08T08:01:52.900Z,99200.15
2018-02-08T08:04:21.243Z,99205.03
2018-02-08T08:06:49.566Z,99204.23
2018-02-08T08:09:18.073Z,99207.00
2018-02-08T08:11:46.362Z,99204.73
2018-02-08T08:14:14.714Z,99206.33
2018-02-08T08:16:43.034Z,99217.77
2018-02-08T08:19:11.324Z,99215.84
2018-02-08T08:21:39.624Z,99215.56
2018-02-08T08:24:07.902Z,99223.77
2018-02-08T08:26:36.202Z,99222.36
2018-02-08T08:29:04.510Z,99229.17
2018-02-08T08:31:32.795Z,99215.16
2018-02-08T08:34:01.086Z,99224.45
2018-02-08T08:36:30.189Z,99222.17
2018-02-08T08:38:58.566Z,99209.75
2018-02-08T08:41:26.843Z,99227.39
2018-02-08T08:43:55.181Z,99232.67
2018-02-08T08:46:23.497Z,99233.38
2018-02-08T08:48:51.883Z,99230.56
2018-02-08T08:51:20.259Z,99231.83
2018-02-08T08:53:49.691Z,99228.00
2018-02-08T08:56:19.575Z,99229.50
2018-02-08T08:58:47.928Z,99234.00
2018-02-08T09:01:16.307Z,99243.40
2018-02-08T09:03:44.684Z,99235.98
2018-02-08T09:06:12.976Z,99238.89
2018-02-08T09:08:41.341Z,99244.91
2018-02-08T09:11:09.613Z,99242.22
2018-02-08T09:13:37.898Z,99246.72
2018-02-08T09:16:06.190Z,99246.61
2018-02-08T09:18:34.584Z,99252.20
2018-02-08T09:21:02.925Z,99244.72
2018-02-08T09:23:31.300Z,99245.41
2018-02-08T09:25:59.613Z,99250.53
2018-02-08T09:28:27.896Z,99252.83
2018-02-08T09:30:56.236Z,99250.92
2018-02-08T09:33:24.515Z,99252.53
2018-02-08T09:35:52.906Z,99250.22
2018-02-08T09:38:21.181Z,99256.95
2018-02-08T09:40:50.119Z,99242.80
2018-02-08T09:43:18.437Z,99260.32
2018-02-08T09:45:46.748Z,99258.78
2018-02-08T09:48:15.394Z,99260.55
2018-02-08T09:50:43.721Z,99265.39
2018-02-08T09:53:11.991Z,99262.95
2018-02-08T09:55:40.342Z,99265.72
2018-02-08T09:58:08.617Z,99271.54
2018-02-08T10:00:36.939Z,99266.86
2018-02-08T10:03:05.870Z,99277.03
2018-02-08T10:05:34.498Z,99277.08
2018-02-08T10:08:02.830Z,99282.05
2018-02-08T10:10:31.108Z,99283.22
2018-02-08T10:13:00.109Z,99288.11
2018-02-08T10:15:28.737Z,99285.68
2018-02-08T10:17:57.090Z,99285.96
2018-02-08T10:20:25.394Z,99281.72
2018-02-08T10:22:53.802Z,99292.37
2018-02-08T10:25:22.100Z,99290.45
2018-02-08T10:27:50.473Z,99280.24
2018-02-08T10:30:18.906Z,99292.61
2018-02-08T10:32:47.979Z,99292.34
2018-02-08T10:35:16.266Z,99290.58
2018-02-08T10:37:44.528Z,99284.00
2018-02-08T10:40:12.902Z,99297.05
2018-02-08T10:42:41.195Z,99286.80
2018-02-08T10:45:09.559Z,99287.38
2018-02-08T10:47:37.925Z,99280.53
2018-02-08T10:50:07.121Z,99278.88
2018-02-08T10:52:35.439Z,99278.10
2018-02-08T10:55:04.729Z,99237.05
2018-02-08T10:57:32.988Z,99281.12
2018-02-08T11:00:01.368Z,99282.47
2018-02-08T11:02:29.648Z,99279.68
2018-02-08T11:04:57.999Z,99278.45
2018-02-08T11:07:26.289Z,99277.30
2018-02-08T11:09:54.628Z,99275.80
2018-02-08T11:12:23.072Z,99275.66
2018-02-08T11:14:52.130Z,99271.88
2018-02-08T11:17:20.440Z,99270.80
2018-02-08T11:19:48.785Z,99272.70
2018-02-08T11:22:17.136Z,99271.48
2018-02-08T11:24:45.444Z,99268.52
2018-02-08T11:27:16.090Z,99266.44
2018-02-08T11:29:44.380Z,99272.88
2018-02-08T11:32:12.726Z,99269.55
2018-02-08T11:34:41.048Z,99263.69
2018-02-08T11:37:10.803Z,99258.86
2018-02-08T11:39:39.270Z,99265.20
2018-02-08T11:42:07.608Z,99260.98
2018-02-08T11:44:35.998Z,99261.05
2018-02-08T11:47:05.711Z,99262.32
2018-02-08T11:49:34.071Z,99261.52
2018-02-08T11:52:02.354Z,99267.25
2018-02-08T11:54:30.672Z,99261.21
2018-02-08T11:56:58.966Z,99264.09
2018-02-08T11:59:27.275Z,99264.45
2018-02-08T12:01:55.544Z,99265.48
2018-02-08T12:04:23.997Z,99266.11
2018-02-08T12:06:52.297Z,99261.89
2018-02-08T12:09:21.549Z,99257.73
2018-02-08T12:11:49.869Z,99250.88
2018-02-08T12:14:18.226Z,99249.14
2018-02-08T12:16:46.479Z,99246.83
2018-02-08T12:19:14.797Z,99243.28
2018-02-08T12:21:43.218Z,99236.73
2018-02-08T12:24:11.566Z,99240.02
2018-02-08T12:26:39.893Z,99242.00
2018-02-08T12:29:09.090Z,99244.55
2018-02-08T12:31:37.421Z,99244.14
2018-02-08T12:34:05.701Z,99244.16
2018-02-08T12:36:34.042Z,99245.51
2018-02-08T12:39:02.423Z,99244.17
2018-02-08T12:41:30.743Z,99242.00
2018-02-08T12:43:59.051Z,99239.47
2018-02-08T12:46:27.382Z,99234.78
2018-02-08T12:48:55.709Z,99236.66
2018-02-08T12:51:24.928Z,99223.77
2018-02-08T12:53:53.264Z,99220.98
2018-02-08T12:56:21.563Z,99224.32
2018-02-08T12:58:51.008Z,99218.77
2018-02-08T13:01:19.344Z,99219.58
2018-02-08T13:03:47.618Z,99215.48
2018-02-08T13:06:15.968Z,99220.88
2018-02-08T13:08:44.273Z,99207.56
2018-02-08T13:11:13.399Z,99205.73
2018-02-08T13:13:41.816Z,99201.09
2018-02-08T13:16:10.092Z,99201.93
2018-02-08T13:18:38.401Z,99197.22
2018-02-08T13:21:06.733Z,99199.73
2018-02-08T13:23:35.032Z,99194.98
2018-02-08T13:26:03.384Z,99198.64
2018-02-08T13:28:31.903Z,99203.38
2018-02-08T13:31:01.941Z,99201.19
2018-02-08T13:33:30.233Z,99193.47
2018-02-08T13:35:58.648Z,99198.83
2018-02-08T13:38:26.916Z,99195.06
2018-02-08T13:40:55.211Z,99192.77
2018-02-08T13:43:23.542Z,99182.00
2018-02-08T13:45:52.200Z,99192.22
2018-02-08T13:48:23.895Z,99195.23
2018-02-08T13:50:57.743Z,99197.36
2018-02-08T13:53:40.787Z,99198.99
2018-02-08T13:56:09.167Z,99196.65
2018-02-08T13:58:43.000Z,99201.45
2018-02-08T14:01:13.642Z,99178.92
2018-02-08T14:03:42.120Z,99194.03
2018-02-08T14:06:10.391Z,99189.83
2018-02-08T14:08:38.794Z,99190.83
2018-02-08T14:11:07.061Z,99186.70
2018-02-08T14:13:35.434Z,99186.37
2018-02-08T14:16:04.276Z,99188.50
2018-02-08T14:18:33.592Z,99194.84
2018-02-08T14:21:01.932Z,99187.52
2018-02-08T14:23:30.267Z,99190.64
2018-02-08T14:25:58.739Z,99193.49
2018-02-08T14:28:27.023Z,99192.17
2018-02-08T14:30:55.493Z,99194.08
2018-02-08T14:33:23.864Z,99194.25
2018-02-08T14:35:52.171Z,99191.93
2018-02-08T14:38:20.643Z,99192.52
2018-02-08T14:40:48.938Z,99188.19
2018-02-08T14:43:17.278Z,99186.96
2018-02-08T14:45:45.592Z,99184.86
2018-02-08T14:48:13.925Z,99188.92
2018-02-08T14:50:42.226Z,99185.83
2018-02-08T14:53:10.604Z,99185.66
2018-02-08T14:55:39.013Z,99190.72
2018-02-08T14:58:08.075Z,99190.80
2018-02-08T15:00:36.364Z,99189.81
2018-02-08T15:03:04.974Z,99159.11
2018-02-08T15:05:33.293Z,99171.02
2018-02-08T15:08:01.728Z,99181.94
2018-02-08T15:10:30.159Z,99180.13
2018-02-08T15:12:58.630Z,99182.34
2018-02-08T15:15:26.982Z,99185.90
2018-02-08T15:17:56.234Z,99193.35
2018-02-08T15:20:24.627Z,99196.05
2018-02-08T15:22:52.965Z,99197.13
2018-02-08T15:25:21.316Z,99199.75
2018-02-08T15:27:49.722Z,99199.36
2018-02-08T15:30:18.031Z,99195.72
2018-02-08T15:32:46.306Z,99198.86
2018-02-08T15:35:14.680Z,99199.85
2018-02-08T15:37:42.913Z,99195.98
2018-02-08T15:40:11.201Z,99199.45
2018-02-08T15:42:39.663Z,99205.92
2018-02-08T15:45:10.807Z,99198.98
2018-02-08T15:47:39.127Z,99203.25
2018-02-08T15:50:07.580Z,99203.05
2018-02-08T15:52:35.896Z,99198.28
2018-02-08T15:55:04.215Z,99194.16
2018-02-08T15:57:32.581Z,99194.66
2018-02-08T16:00:00.890Z,99201.75
2018-02-08T16:02:29.223Z,99201.79
2018-02-08T16:04:57.504Z,99207.21
2018-02-08T16:07:26.622Z,99201.30
2018-02-08T16:09:54.964Z,99192.28
2018-02-08T16:12:23.260Z,99196.96
2018-02-08T16:14:51.714Z,99197.92
2018-02-08T16:17:20.085Z,99200.34
2018-02-08T16:19:50.034Z,99202.78
2018-02-08T16:22:18.367Z,99191.01
2018-02-08T16:24:48.061Z,99202.48
2018-02-08T16:27:16.360Z,99208.90
2018-02-08T16:29:44.747Z,99205.66
2018-02-08T16:32:13.102Z,99205.88
2018-02-08T16:34:41.413Z,99213.09
2018-02-08T16:37:09.687Z,99206.30
2018-02-08T16:39:37.987Z,99207.19
2018-02-08T16:42:06.275Z,99206.66
2018-02-08T16:44:34.576Z,99205.30
2018-02-08T16:47:02.892Z,99206.63
2018-02-08T16:49:31.170Z,99215.38
2018-02-08T16:51:59.504Z,99216.64
2018-02-08T16:54:27.776Z,99215.16
2018-02-08T16:56:56.107Z,99209.31
2018-02-08T16:59:24.370Z,99218.34
2018-02-08T17:01:52.740Z,99217.94
2018-02-08T17:04:21.007Z,99218.23
2018-02-08T17:06:49.365Z,99213.38
2018-02-08T17:09:17.747Z,99216.11
2018-02-08T17:11:46.113Z,99214.63
2018-02-08T17:14:14.386Z,99214.30
2018-02-08T17:16:42.703Z,99212.64
2018-02-08T17:19:11.003Z,99209.95
2018-02-08T17:21:39.269Z,99217.05
2018-02-08T17:24:07.684Z,99205.77
2018-02-08T17:26:35.948Z,99218.25
2018-02-08T17:29:04.830Z,99204.66
2018-02-08T17:31:33.123Z,99222.73
2018-02-08T17:34:01.424Z,99224.44
2018-02-08T17:36:29.700Z,99218.27
2018-02-08T17:38:58.015Z,99223.11
2018-02-08T17:41:26.319Z,99219.84
2018-02-08T17:43:54.766Z,99220.59
2018-02-08T17:46:23.019Z,99224.70
2018-02-08T17:48:51.392Z,99229.02
2018-02-08T17:51:19.662Z,99227.64
2018-02-08T17:53:47.976Z,99229.17
2018-02-08T17:56:16.267Z,99223.83
2018-02-08T17:58:44.574Z,99228.62
2018-02-08T18:01:12.843Z,99231.59
2018-02-08T18:03:41.134Z,99233.56
2018-02-08T18:06:09.422Z,99238.67
2018-02-08T18:08:37.826Z,99237.58
2018-02-08T18:11:06.168Z,99232.16
2018-02-08T18:13:34.590Z,99231.36
2018-02-08T18:16:02.877Z,99232.36
2018-02-08T18:18:31.156Z,99230.08
2018-02-08T18:20:59.453Z,99234.72
2018-02-08T18:23:27.763Z,99237.55
2018-02-08T18:25:56.934Z,99234.44
2018-02-08T18:28:25.287Z,99240.92
2018-02-08T18:30:53.520Z,99243.89
2018-02-08T18:33:21.817Z,99237.95
2018-02-08T18:35:50.084Z,99249.11
2018-02-08T18:38:18.516Z,99245.29
2018-02-08T18:40:46.783Z,99238.70
2018-02-08T18:43:15.060Z,99238.95
2018-02-08T18:45:43.355Z,99244.62
2018-02-08T18:48:11.662Z,99235.60
2018-02-08T18:50:39.937Z,99240.23
2018-02-08T18:53:08.203Z,99233.20
2018-02-08T18:55:36.531Z,99229.45
2018-02-08T18:58:04.896Z,99229.17
2018-02-08T19:00:33.095Z,99230.97
2018-02-08T19:03:01.387Z,99226.46
2018-02-08T19:05:29.713Z,99232.46
2018-02-08T19:07:58.006Z,99235.91
2018-02-08T19:10:26.299Z,99232.31
2018-02-08T19:12:54.610Z,99227.33
2018-02-08T19:15:22.991Z,99239.27
2018-02-08T19:17:51.299Z,99231.19
2018-02-08T19:20:19.579Z,99231.91
2018-02-08T19:22:47.888Z,99234.83
2018-02-08T19:25:16.208Z,99233.61
2018-02-08T19:27:44.476Z,99236.72
2018-02-08T19:30:12.779Z,99236.78
2018-02-08T19:32:41.057Z,99220.28
2018-02-08T19:35:09.370Z,99237.63
2018-02-08T19:37:37.702Z,99236.04
2018-02-08T19:40:06.853Z,99232.49
2018-02-08T19:42:35.235Z,99237.88
2018-02-08T19:45:03.507Z,99238.46
2018-02-08T19:47:31.807Z,99229.54
2018-02-08T19:50:00.107Z,99228.67
2018-02-08T19:52:28.380Z,99226.16
2018-02-08T19:54:56.746Z,99224.04
2018-02-08T19:57:25.050Z,99228.36
2018-02-08T19:59:53.367Z,99231.16
2018-02-08T20:02:21.668Z,99235.11
2018-02-08T20:04:49.955Z,99236.47
2018-02-08T20:07:18.271Z,99235.57
2018-02-08T20:09:46.578Z,99238.92
2018-02-08T20:12:14.868Z,99240.00
2018-02-08T20:14:58.813Z,99236.68
2018-02-08T20:17:27.145Z,99234.84
2018-02-08T20:19:55.390Z,99239.52
2018-02-08T20:22:23.701Z,99233.44
2018-02-08T20:24:51.976Z,99236.47
2018-02-08T20:27:20.276Z,99231.78
2018-02-08T20:29:48.557Z,99227.46
2018-02-08T20:32:16.904Z,99226.48
2018-02-08T20:34:45.205Z,99226.11
2018-02-08T20:37:13.516Z,99223.45
2018-02-08T20:39:41.792Z,99225.80
2018-02-08T20:45:09.518Z,99221.75
2018-02-08T20:47:37.818Z,99224.80
2018-02-08T20:50:06.095Z,99224.03
2018-02-08T20:52:34.451Z,99224.03
2018-02-08T20:55:02.911Z,99222.95
2018-02-08T20:57:31.176Z,99222.05
2018-02-08T20:59:59.484Z,99219.17
2018-02-08T21:02:27.787Z,99219.88
2018-02-08T21:04:56.087Z,99225.62
2018-02-08T21:07:24.438Z,99218.80
2018-02-08T21:09:52.747Z,99218.03
2018-02-08T21:12:21.037Z,99221.64
2018-02-08T21:14:49.350Z,99221.70
2018-02-08T21:17:17.682Z,99209.61
2018-02-08T21:19:45.991Z,99209.52
2018-02-08T21:22:14.305Z,99200.66
2018-02-08T21:24:42.628Z,99183.72
2018-02-08T21:27:10.901Z,99201.56
2018-02-08T21:29:39.242Z,99193.92
2018-02-08T21:32:07.577Z,99197.89
2018-02-08T21:34:35.900Z,99197.95
2018-02-08T21:37:05.075Z,99099.80
2018-02-08T21:39:33.411Z,99190.34
2018-02-08T21:42:01.684Z,99184.34
2018-02-08T21:44:29.995Z,99188.91
2018-02-08T21:46:58.271Z,99185.92
2018-02-08T21:49:26.589Z,99188.31
2018-02-08T21:51:54.935Z,99189.00
2018-02-08T21:54:23.212Z,99181.47
2018-02-08T21:56:51.519Z,99178.77
2018-02-08T21:59:19.817Z,99176.06
2018-02-08T22:01:48.086Z,99176.97
2018-02-08T22:04:16.378Z,99175.02
2018-02-08T22:06:44.709Z,99174.89
2018-02-08T22:09:13.002Z,99172.63
2018-02-08T22:11:41.303Z,99178.32
2018-02-08T22:14:09.588Z,99170.37
2018-02-08T22:16:37.884Z,99172.89
2018-02-08T22:19:06.167Z,99165.50
2018-02-08T22:21:34.484Z,99170.70
2018-02-08T22:24:02.784Z,99169.58
2018-02-08T22:26:31.080Z,99161.78
2018-02-08T22:28:59.361Z,99164.40
2018-02-08T22:31:27.685Z,99161.05
2018-02-08T22:33:55.964Z,99170.94
2018-02-08T22:36:24.248Z,99169.19
2018-02-08T22:38:52.565Z,99168.39
2018-02-08T22:41:20.876Z,99168.72
2018-02-08T22:43:49.208Z,99168.66
2018-02-08T22:46:17.525Z,99169.64
2018-02-08T22:48:45.879Z,99168.27
2018-02-08T22:51:14.247Z,99148.08
2018-02-08T22:53:42.570Z,99179.08
2018-02-08T22:56:10.831Z,99172.34
2018-02-08T22:58:39.160Z,99172.64
2018-02-08T23:01:07.487Z,99168.97
2018-02-08T23:03:35.758Z,99174.38
2018-02-08T23:06:04.960Z,99167.03
2018-02-08T23:08:33.249Z,99165.50
2018-02-08T23:11:01.559Z,99157.94
2018-02-08T23:13:29.866Z,99159.52
2018-02-08T23:15:58.170Z,99165.73
2018-02-08T23:18:26.461Z,99168.20
2018-02-08T23:20:54.761Z,99168.08
2018-02-08T23:23:23.054Z,99172.48
2018-02-08T23:25:51.331Z,99164.84
2018-02-08T23:28:19.627Z,99161.00
2018-02-08T23:30:47.903Z,99163.56
2018-02-08T23:33:16.207Z,99161.55
2018-02-08T23:35:44.474Z,99166.85
2018-02-08T23:38:12.760Z,99168.63
2018-02-08T23:40:41.081Z,99162.68
2018-02-08T23:43:09.381Z,99171.55
2018-02-08T23:45:37.679Z,99160.08
2018-02-08T23:48:05.963Z,99171.92
2018-02-08T23:50:34.272Z,99170.80
2018-02-08T23:53:02.548Z,99109.83
2018-02-08T23:55:30.878Z,99171.79
2018-02-08T23:57:59.155Z,99173.72
